sensor_id;sensor_type;location;lat;lon;timestamp;temperature;humidity
32095;DHT22;18608;53.688;10.748;2023-02-28T00:01:20;2.80;99.90
32095;DHT22;18608;53.688;10.748;2023-02-28T00:03:45;2.80;99.90
32095;DHT22;18608;53.688;10.748;2023-02-28T00:06:11;3.30;99.90
32095;DHT22;18608;53.688;10.748;2023-02-28T00:08:37;4.00;99.90
32095;DHT22;18608;53.688;10.748;2023-02-28T00:11:05;2.90;99.90
32095;DHT22;18608;53.688;10.748;2023-02-28T00:13:35;2.40;99.90
32095;DHT22;18608;53.688;10.748;2023-02-28T00:16:07;2.30;99.90
32095;DHT22;18608;53.688;10.748;2023-02-28T00:18:34;2.30;99.90
32095;DHT22;18608;53.688;10.748;2023-02-28T00:21:00;2.40;99.90
32095;DHT22;18608;53.688;10.748;2023-02-28T00:23:26;2.50;99.90
32095;DHT22;18608;53.688;10.748;2023-02-28T00:25:53;2.50;99.90
32095;DHT22;18608;53.688;10.748;2023-02-28T00:28:18;2.40;99.90
32095;DHT22;18608;53.688;10.748;2023-02-28T00:30:44;2.30;99.90
32095;DHT22;18608;53.688;10.748;2023-02-28T00:33:10;2.20;99.90
32095;DHT22;18608;53.688;10.748;2023-02-28T00:38:02;2.20;99.90
32095;DHT22;18608;53.688;10.748;2023-02-28T00:40:28;2.30;99.90
32095;DHT22;18608;53.688;10.748;2023-02-28T00:42:54;5.50;99.90
32095;DHT22;18608;53.688;10.748;2023-02-28T00:45:20;2.20;99.90
32095;DHT22;18608;53.688;10.748;2023-02-28T00:47:46;2.20;99.90
32095;DHT22;18608;53.688;10.748;2023-02-28T00:50:18;2.10;99.90
32095;DHT22;18608;53.688;10.748;2023-02-28T00:52:44;2.10;99.90
32095;DHT22;18608;53.688;10.748;2023-02-28T00:55:09;2.00;99.90
32095;DHT22;18608;53.688;10.748;2023-02-28T00:57:35;1.90;99.90
32095;DHT22;18608;53.688;10.748;2023-02-28T01:00:01;1.90;99.90
32095;DHT22;18608;53.688;10.748;2023-02-28T01:02:26;1.80;99.90
32095;DHT22;18608;53.688;10.748;2023-02-28T01:04:52;1.40;99.90
32095;DHT22;18608;53.688;10.748;2023-02-28T01:07:18;1.80;99.90
32095;DHT22;18608;53.688;10.748;2023-02-28T01:09:43;1.70;99.90
32095;DHT22;18608;53.688;10.748;2023-02-28T01:12:09;1.70;99.90
32095;DHT22;18608;53.688;10.748;2023-02-28T01:14:35;1.70;99.90
32095;DHT22;18608;53.688;10.748;2023-02-28T01:19:27;1.60;99.90
32095;DHT22;18608;53.688;10.748;2023-02-28T01:21:52;1.60;99.90
32095;DHT22;18608;53.688;10.748;2023-02-28T01:24:18;1.60;99.90
32095;DHT22;18608;53.688;10.748;2023-02-28T01:26:44;1.50;99.90
32095;DHT22;18608;53.688;10.748;2023-02-28T01:29:10;1.50;99.90
32095;DHT22;18608;53.688;10.748;2023-02-28T01:31:35;1.40;99.90
32095;DHT22;18608;53.688;10.748;2023-02-28T01:34:02;1.40;99.90
32095;DHT22;18608;53.688;10.748;2023-02-28T01:36:27;1.40;99.90
32095;DHT22;18608;53.688;10.748;2023-02-28T01:38:53;1.30;99.90
32095;DHT22;18608;53.688;10.748;2023-02-28T01:41:25;1.30;99.90
32095;DHT22;18608;53.688;10.748;2023-02-28T01:46:20;1.20;99.90
32095;DHT22;18608;53.688;10.748;2023-02-28T01:48:49;1.20;99.90
32095;DHT22;18608;53.688;10.748;2023-02-28T01:51:44;1.20;99.90
32095;DHT22;18608;53.688;10.748;2023-02-28T01:54:15;1.10;99.90
32095;DHT22;18608;53.688;10.748;2023-02-28T01:56:50;1.10;99.90
32095;DHT22;18608;53.688;10.748;2023-02-28T01:59:25;1.00;99.90
32095;DHT22;18608;53.688;10.748;2023-02-28T02:01:53;1.00;99.90
32095;DHT22;18608;53.688;10.748;2023-02-28T02:04:19;1.00;99.90
32095;DHT22;18608;53.688;10.748;2023-02-28T02:06:47;0.90;99.90
32095;DHT22;18608;53.688;10.748;2023-02-28T02:09:13;2.20;99.90
32095;DHT22;18608;53.688;10.748;2023-02-28T02:11:41;0.90;99.90
32095;DHT22;18608;53.688;10.748;2023-02-28T02:14:27;0.80;99.90
32095;DHT22;18608;53.688;10.748;2023-02-28T02:36:22;0.30;99.90
32095;DHT22;18608;53.688;10.748;2023-02-28T02:38:53;0.30;99.90
32095;DHT22;18608;53.688;10.748;2023-02-28T02:41:24;0.30;99.90
32095;DHT22;18608;53.688;10.748;2023-02-28T02:44:01;1.70;99.90
32095;DHT22;18608;53.688;10.748;2023-02-28T02:46:41;0.20;99.90
32095;DHT22;18608;53.688;10.748;2023-02-28T02:49:12;0.20;99.90
32095;DHT22;18608;53.688;10.748;2023-02-28T02:51:40;0.00;99.90
32095;DHT22;18608;53.688;10.748;2023-02-28T02:54:11;0.00;99.90
32095;DHT22;18608;53.688;10.748;2023-02-28T02:56:42;-0.10;99.90
32095;DHT22;18608;53.688;10.748;2023-02-28T02:59:12;-0.20;99.90
32095;DHT22;18608;53.688;10.748;2023-02-28T03:01:39;-0.30;99.90
32095;DHT22;18608;53.688;10.748;2023-02-28T03:04:10;-0.50;99.90
32095;DHT22;18608;53.688;10.748;2023-02-28T03:06:37;0.70;99.90
32095;DHT22;18608;53.688;10.748;2023-02-28T03:09:02;-0.50;99.90
32095;DHT22;18608;53.688;10.748;2023-02-28T03:11:31;-0.40;99.90
32095;DHT22;18608;53.688;10.748;2023-02-28T03:27:53;-0.70;99.90
32095;DHT22;18608;53.688;10.748;2023-02-28T03:33:03;-0.40;99.90
32095;DHT22;18608;53.688;10.748;2023-02-28T03:35:50;-0.30;99.90
32095;DHT22;18608;53.688;10.748;2023-02-28T03:38:24;-0.30;99.90
32095;DHT22;18608;53.688;10.748;2023-02-28T03:40:57;-0.30;99.90
32095;DHT22;18608;53.688;10.748;2023-02-28T03:43:28;-0.20;99.90
32095;DHT22;18608;53.688;10.748;2023-02-28T03:45:55;-0.30;99.90
32095;DHT22;18608;53.688;10.748;2023-02-28T03:48:26;-0.20;99.90
32095;DHT22;18608;53.688;10.748;2023-02-28T03:50:55;-0.20;99.90
32095;DHT22;18608;53.688;10.748;2023-02-28T03:56:01;-0.30;99.90
32095;DHT22;18608;53.688;10.748;2023-02-28T03:58:41;-0.30;99.90
32095;DHT22;18608;53.688;10.748;2023-02-28T04:01:25;-0.40;99.90
32095;DHT22;18608;53.688;10.748;2023-02-28T04:03:53;-0.40;99.90
32095;DHT22;18608;53.688;10.748;2023-02-28T04:06:21;-0.40;99.90
32095;DHT22;18608;53.688;10.748;2023-02-28T04:08:48;-0.40;99.90
32095;DHT22;18608;53.688;10.748;2023-02-28T04:13:42;-0.50;99.90
32095;DHT22;18608;53.688;10.748;2023-02-28T04:16:08;-0.50;99.90
32095;DHT22;18608;53.688;10.748;2023-02-28T04:18:41;-0.50;99.90
32095;DHT22;18608;53.688;10.748;2023-02-28T04:21:11;-0.60;99.90
32095;DHT22;18608;53.688;10.748;2023-02-28T04:23:36;-0.70;99.90
32095;DHT22;18608;53.688;10.748;2023-02-28T04:26:02;-0.70;99.90
32095;DHT22;18608;53.688;10.748;2023-02-28T04:28:29;-0.70;99.90
32095;DHT22;18608;53.688;10.748;2023-02-28T04:30:56;-0.70;99.90
32095;DHT22;18608;53.688;10.748;2023-02-28T04:33:21;-0.70;99.90
32095;DHT22;18608;53.688;10.748;2023-02-28T04:35:47;-0.70;99.90
32095;DHT22;18608;53.688;10.748;2023-02-28T04:40:38;-0.80;99.90
32095;DHT22;18608;53.688;10.748;2023-02-28T04:43:04;-0.90;99.90
32095;DHT22;18608;53.688;10.748;2023-02-28T04:45:29;-0.90;99.90
32095;DHT22;18608;53.688;10.748;2023-02-28T04:47:57;-0.90;99.90
32095;DHT22;18608;53.688;10.748;2023-02-28T04:50:23;-0.90;99.90
32095;DHT22;18608;53.688;10.748;2023-02-28T04:52:49;-0.90;99.90
32095;DHT22;18608;53.688;10.748;2023-02-28T04:55:14;-1.00;99.90
32095;DHT22;18608;53.688;10.748;2023-02-28T04:57:40;-1.00;99.90
32095;DHT22;18608;53.688;10.748;2023-02-28T05:00:08;-1.00;99.90
32095;DHT22;18608;53.688;10.748;2023-02-28T05:02:37;-1.00;99.90
32095;DHT22;18608;53.688;10.748;2023-02-28T05:05:04;-1.00;99.90
32095;DHT22;18608;53.688;10.748;2023-02-28T05:07:30;-1.00;99.90
32095;DHT22;18608;53.688;10.748;2023-02-28T05:09:56;-1.10;99.90
32095;DHT22;18608;53.688;10.748;2023-02-28T05:12:21;-0.50;99.90
32095;DHT22;18608;53.688;10.748;2023-02-28T05:14:47;-1.10;99.90
32095;DHT22;18608;53.688;10.748;2023-02-28T05:17:12;-2.10;99.90
32095;DHT22;18608;53.688;10.748;2023-02-28T05:19:38;-1.20;99.90
32095;DHT22;18608;53.688;10.748;2023-02-28T05:22:03;-1.20;99.90
32095;DHT22;18608;53.688;10.748;2023-02-28T05:24:29;-1.10;99.90
32095;DHT22;18608;53.688;10.748;2023-02-28T05:26:55;-1.10;99.90
32095;DHT22;18608;53.688;10.748;2023-02-28T05:29:21;-1.30;99.90
32095;DHT22;18608;53.688;10.748;2023-02-28T05:31:48;-1.30;99.90
32095;DHT22;18608;53.688;10.748;2023-02-28T05:34:13;-1.30;99.90
32095;DHT22;18608;53.688;10.748;2023-02-28T05:36:41;-1.30;99.90
32095;DHT22;18608;53.688;10.748;2023-02-28T05:39:06;-1.30;99.90
32095;DHT22;18608;53.688;10.748;2023-02-28T05:41:40;-1.30;99.90
32095;DHT22;18608;53.688;10.748;2023-02-28T05:44:05;-1.30;99.90
32095;DHT22;18608;53.688;10.748;2023-02-28T05:46:31;-1.40;99.90
32095;DHT22;18608;53.688;10.748;2023-02-28T05:48:57;-0.30;99.90
32095;DHT22;18608;53.688;10.748;2023-02-28T05:51:25;-1.30;99.90
32095;DHT22;18608;53.688;10.748;2023-02-28T05:53:51;-1.40;99.90
32095;DHT22;18608;53.688;10.748;2023-02-28T05:56:16;-1.40;99.90
32095;DHT22;18608;53.688;10.748;2023-02-28T05:58:42;-1.40;99.90
32095;DHT22;18608;53.688;10.748;2023-02-28T06:03:55;-1.40;99.90
32095;DHT22;18608;53.688;10.748;2023-02-28T06:06:20;-1.40;99.90
32095;DHT22;18608;53.688;10.748;2023-02-28T06:08:46;-1.50;99.90
32095;DHT22;18608;53.688;10.748;2023-02-28T06:11:12;-1.50;99.90
32095;DHT22;18608;53.688;10.748;2023-02-28T06:13:38;-1.50;99.90
32095;DHT22;18608;53.688;10.748;2023-02-28T06:16:04;-1.50;99.90
32095;DHT22;18608;53.688;10.748;2023-02-28T06:18:29;-1.50;99.90
32095;DHT22;18608;53.688;10.748;2023-02-28T06:20:55;-1.50;99.90
32095;DHT22;18608;53.688;10.748;2023-02-28T06:23:22;-1.50;99.90
32095;DHT22;18608;53.688;10.748;2023-02-28T06:25:47;-1.50;99.90
32095;DHT22;18608;53.688;10.748;2023-02-28T06:28:13;-1.50;99.90
32095;DHT22;18608;53.688;10.748;2023-02-28T06:30:39;-1.50;99.90
32095;DHT22;18608;53.688;10.748;2023-02-28T06:33:04;-1.40;99.90
32095;DHT22;18608;53.688;10.748;2023-02-28T06:35:31;-1.40;99.90
32095;DHT22;18608;53.688;10.748;2023-02-28T06:37:56;-1.40;99.90
32095;DHT22;18608;53.688;10.748;2023-02-28T06:40:22;-1.40;99.90
32095;DHT22;18608;53.688;10.748;2023-02-28T06:42:48;-2.10;99.90
32095;DHT22;18608;53.688;10.748;2023-02-28T06:45:13;-1.30;99.90
32095;DHT22;18608;53.688;10.748;2023-02-28T06:47:40;-1.20;99.90
32095;DHT22;18608;53.688;10.748;2023-02-28T06:50:09;-1.20;99.90
32095;DHT22;18608;53.688;10.748;2023-02-28T06:52:36;-1.30;99.90
32095;DHT22;18608;53.688;10.748;2023-02-28T06:55:06;-1.20;99.90
32095;DHT22;18608;53.688;10.748;2023-02-28T06:57:34;-1.20;99.90
32095;DHT22;18608;53.688;10.748;2023-02-28T07:00:01;-1.30;99.90
32095;DHT22;18608;53.688;10.748;2023-02-28T07:02:27;-1.30;99.90
32095;DHT22;18608;53.688;10.748;2023-02-28T07:04:52;-1.20;99.90
32095;DHT22;18608;53.688;10.748;2023-02-28T07:07:18;-1.10;99.90
32095;DHT22;18608;53.688;10.748;2023-02-28T07:09:44;-1.00;99.90
32095;DHT22;18608;53.688;10.748;2023-02-28T07:12:09;-0.80;99.90
32095;DHT22;18608;53.688;10.748;2023-02-28T07:14:36;-0.60;99.90
32095;DHT22;18608;53.688;10.748;2023-02-28T07:17:03;-0.40;99.90
32095;DHT22;18608;53.688;10.748;2023-02-28T07:19:28;-0.30;99.90
32095;DHT22;18608;53.688;10.748;2023-02-28T07:21:54;-0.30;99.90
32095;DHT22;18608;53.688;10.748;2023-02-28T07:24:20;-0.20;99.90
32095;DHT22;18608;53.688;10.748;2023-02-28T07:26:46;0.10;99.90
32095;DHT22;18608;53.688;10.748;2023-02-28T07:29:12;0.60;99.90
32095;DHT22;18608;53.688;10.748;2023-02-28T07:31:37;1.20;99.90
32095;DHT22;18608;53.688;10.748;2023-02-28T07:34:03;1.70;99.90
32095;DHT22;18608;53.688;10.748;2023-02-28T07:36:28;2.00;99.90
32095;DHT22;18608;53.688;10.748;2023-02-28T07:38:54;2.50;99.90
32095;DHT22;18608;53.688;10.748;2023-02-28T07:41:21;3.00;99.90
32095;DHT22;18608;53.688;10.748;2023-02-28T07:43:48;3.50;99.90
32095;DHT22;18608;53.688;10.748;2023-02-28T07:46:15;3.90;99.90
32095;DHT22;18608;53.688;10.748;2023-02-28T07:48:42;4.30;99.90
32095;DHT22;18608;53.688;10.748;2023-02-28T07:51:08;4.40;99.90
32095;DHT22;18608;53.688;10.748;2023-02-28T07:53:33;4.90;99.90
32095;DHT22;18608;53.688;10.748;2023-02-28T07:56:00;4.90;99.90
32095;DHT22;18608;53.688;10.748;2023-02-28T07:58:28;5.20;99.90
32095;DHT22;18608;53.688;10.748;2023-02-28T08:00:54;5.60;99.90
32095;DHT22;18608;53.688;10.748;2023-02-28T08:03:21;5.80;99.90
32095;DHT22;18608;53.688;10.748;2023-02-28T08:05:47;6.10;99.90
32095;DHT22;18608;53.688;10.748;2023-02-28T08:08:14;6.30;99.90
32095;DHT22;18608;53.688;10.748;2023-02-28T08:10:40;6.60;99.90
32095;DHT22;18608;53.688;10.748;2023-02-28T08:13:06;6.80;99.90
32095;DHT22;18608;53.688;10.748;2023-02-28T08:15:32;7.00;99.90
32095;DHT22;18608;53.688;10.748;2023-02-28T08:17:57;6.60;99.90
32095;DHT22;18608;53.688;10.748;2023-02-28T08:20:24;5.70;99.90
32095;DHT22;18608;53.688;10.748;2023-02-28T08:22:50;5.20;99.90
32095;DHT22;18608;53.688;10.748;2023-02-28T08:25:16;5.20;99.90
32095;DHT22;18608;53.688;10.748;2023-02-28T08:27:41;5.50;99.90
32095;DHT22;18608;53.688;10.748;2023-02-28T08:30:10;5.70;99.90
32095;DHT22;18608;53.688;10.748;2023-02-28T08:32:35;5.80;99.90
32095;DHT22;18608;53.688;10.748;2023-02-28T08:35:01;5.80;99.90
32095;DHT22;18608;53.688;10.748;2023-02-28T08:39:54;6.60;99.90
32095;DHT22;18608;53.688;10.748;2023-02-28T08:42:19;7.00;99.90
32095;DHT22;18608;53.688;10.748;2023-02-28T08:44:45;7.30;99.90
32095;DHT22;18608;53.688;10.748;2023-02-28T08:47:11;7.10;99.90
32095;DHT22;18608;53.688;10.748;2023-02-28T08:49:36;6.50;99.90
32095;DHT22;18608;53.688;10.748;2023-02-28T08:52:03;6.80;99.90
32095;DHT22;18608;53.688;10.748;2023-02-28T08:54:28;6.50;99.90
32095;DHT22;18608;53.688;10.748;2023-02-28T08:56:56;6.90;99.90
32095;DHT22;18608;53.688;10.748;2023-02-28T08:59:22;7.00;99.90
32095;DHT22;18608;53.688;10.748;2023-02-28T09:01:48;7.10;99.90
32095;DHT22;18608;53.688;10.748;2023-02-28T09:04:13;7.70;99.90
32095;DHT22;18608;53.688;10.748;2023-02-28T09:06:39;7.70;99.90
32095;DHT22;18608;53.688;10.748;2023-02-28T09:09:04;7.50;99.90
32095;DHT22;18608;53.688;10.748;2023-02-28T09:11:33;7.60;99.90
32095;DHT22;18608;53.688;10.748;2023-02-28T09:13:59;7.80;99.90
32095;DHT22;18608;53.688;10.748;2023-02-28T09:16:26;8.20;99.90
32095;DHT22;18608;53.688;10.748;2023-02-28T09:18:52;8.40;99.90
32095;DHT22;18608;53.688;10.748;2023-02-28T09:21:18;8.40;99.90
32095;DHT22;18608;53.688;10.748;2023-02-28T09:23:46;7.90;99.90
32095;DHT22;18608;53.688;10.748;2023-02-28T09:26:16;7.90;99.90
32095;DHT22;18608;53.688;10.748;2023-02-28T09:28:42;8.20;99.90
32095;DHT22;18608;53.688;10.748;2023-02-28T09:31:15;8.20;99.90
32095;DHT22;18608;53.688;10.748;2023-02-28T09:33:42;8.30;99.90
32095;DHT22;18608;53.688;10.748;2023-02-28T09:36:08;8.30;99.90
32095;DHT22;18608;53.688;10.748;2023-02-28T09:38:33;8.30;99.90
32095;DHT22;18608;53.688;10.748;2023-02-28T09:41:02;8.30;99.90
32095;DHT22;18608;53.688;10.748;2023-02-28T09:43:34;8.20;99.90
32095;DHT22;18608;53.688;10.748;2023-02-28T09:46:27;8.20;99.90
32095;DHT22;18608;53.688;10.748;2023-02-28T09:48:54;8.40;99.90
32095;DHT22;18608;53.688;10.748;2023-02-28T09:54:02;8.50;99.90
32095;DHT22;18608;53.688;10.748;2023-02-28T09:56:36;8.20;99.90
32095;DHT22;18608;53.688;10.748;2023-02-28T09:59:31;7.60;99.90
32095;DHT22;18608;53.688;10.748;2023-02-28T10:04:54;7.80;99.90
32095;DHT22;18608;53.688;10.748;2023-02-28T10:10:39;7.80;99.90
32095;DHT22;18608;53.688;10.748;2023-02-28T10:13:12;8.00;99.90
32095;DHT22;18608;53.688;10.748;2023-02-28T10:15:39;8.20;99.90
32095;DHT22;18608;53.688;10.748;2023-02-28T10:18:08;8.10;99.90
32095;DHT22;18608;53.688;10.748;2023-02-28T10:20:39;7.70;99.90
32095;DHT22;18608;53.688;10.748;2023-02-28T10:25:46;8.00;99.90
32095;DHT22;18608;53.688;10.748;2023-02-28T10:28:15;8.00;99.90
32095;DHT22;18608;53.688;10.748;2023-02-28T10:30:46;8.20;99.90
32095;DHT22;18608;53.688;10.748;2023-02-28T10:33:33;8.10;99.90
32095;DHT22;18608;53.688;10.748;2023-02-28T10:36:04;7.90;99.90
32095;DHT22;18608;53.688;10.748;2023-02-28T10:38:38;7.40;99.90
32095;DHT22;18608;53.688;10.748;2023-02-28T10:41:08;7.40;99.90
32095;DHT22;18608;53.688;10.748;2023-02-28T10:43:34;7.80;99.90
32095;DHT22;18608;53.688;10.748;2023-02-28T10:46:09;8.00;99.90
32095;DHT22;18608;53.688;10.748;2023-02-28T10:48:50;8.00;99.90
32095;DHT22;18608;53.688;10.748;2023-02-28T10:51:22;8.10;99.90
32095;DHT22;18608;53.688;10.748;2023-02-28T10:53:52;8.10;99.90
32095;DHT22;18608;53.688;10.748;2023-02-28T10:56:23;8.40;99.90
32095;DHT22;18608;53.688;10.748;2023-02-28T11:01:43;8.00;99.90
32095;DHT22;18608;53.688;10.748;2023-02-28T11:07:18;8.10;99.90
32095;DHT22;18608;53.688;10.748;2023-02-28T11:09:46;8.10;99.90
32095;DHT22;18608;53.688;10.748;2023-02-28T11:12:38;7.90;99.90
32095;DHT22;18608;53.688;10.748;2023-02-28T11:15:18;7.80;99.90
32095;DHT22;18608;53.688;10.748;2023-02-28T11:20:28;7.90;99.90
32095;DHT22;18608;53.688;10.748;2023-02-28T11:22:56;7.90;99.90
32095;DHT22;18608;53.688;10.748;2023-02-28T11:25:28;8.20;99.90
32095;DHT22;18608;53.688;10.748;2023-02-28T11:28:00;8.10;99.90
32095;DHT22;18608;53.688;10.748;2023-02-28T11:30:34;8.60;99.90
32095;DHT22;18608;53.688;10.748;2023-02-28T11:33:14;8.70;99.90
32095;DHT22;18608;53.688;10.748;2023-02-28T11:35:43;8.70;99.90
32095;DHT22;18608;53.688;10.748;2023-02-28T11:38:12;8.80;99.90
32095;DHT22;18608;53.688;10.748;2023-02-28T11:46:25;8.30;99.90
32095;DHT22;18608;53.688;10.748;2023-02-28T12:03:26;8.00;99.90
32095;DHT22;18608;53.688;10.748;2023-02-28T12:11:09;7.50;99.90
32095;DHT22;18608;53.688;10.748;2023-02-28T12:19:16;8.30;99.90
32095;DHT22;18608;53.688;10.748;2023-02-28T12:26:57;8.20;99.90
32095;DHT22;18608;53.688;10.748;2023-02-28T12:29:28;8.30;99.90
32095;DHT22;18608;53.688;10.748;2023-02-28T12:32:13;8.20;99.90
32095;DHT22;18608;53.688;10.748;2023-02-28T12:34:55;8.20;99.90
32095;DHT22;18608;53.688;10.748;2023-02-28T12:37:25;7.90;99.90
32095;DHT22;18608;53.688;10.748;2023-02-28T12:40:04;7.60;99.90
32095;DHT22;18608;53.688;10.748;2023-02-28T12:42:42;7.60;99.90
32095;DHT22;18608;53.688;10.748;2023-02-28T12:47:40;7.60;99.90
32095;DHT22;18608;53.688;10.748;2023-02-28T12:50:10;7.70;99.90
32095;DHT22;18608;53.688;10.748;2023-02-28T12:55:48;8.10;99.90
32095;DHT22;18608;53.688;10.748;2023-02-28T12:58:39;8.20;99.90
32095;DHT22;18608;53.688;10.748;2023-02-28T13:09:14;7.90;99.90
32095;DHT22;18608;53.688;10.748;2023-02-28T13:11:42;7.70;99.90
32095;DHT22;18608;53.688;10.748;2023-02-28T13:14:28;7.50;99.90
32095;DHT22;18608;53.688;10.748;2023-02-28T13:22:36;7.40;99.90
32095;DHT22;18608;53.688;10.748;2023-02-28T13:27:59;6.20;99.90
32095;DHT22;18608;53.688;10.748;2023-02-28T13:33:29;7.00;99.90
32095;DHT22;18608;53.688;10.748;2023-02-28T13:36:08;7.00;99.90
32095;DHT22;18608;53.688;10.748;2023-02-28T13:38:39;7.00;99.90
32095;DHT22;18608;53.688;10.748;2023-02-28T13:51:52;6.70;99.90
32095;DHT22;18608;53.688;10.748;2023-02-28T13:59:39;7.00;99.90
32095;DHT22;18608;53.688;10.748;2023-02-28T14:05:05;7.00;99.90
32095;DHT22;18608;53.688;10.748;2023-02-28T14:07:50;6.90;99.90
32095;DHT22;18608;53.688;10.748;2023-02-28T14:10:30;6.90;99.90
32095;DHT22;18608;53.688;10.748;2023-02-28T14:15:55;6.90;99.90
32095;DHT22;18608;53.688;10.748;2023-02-28T14:21:27;6.80;99.90
32095;DHT22;18608;53.688;10.748;2023-02-28T14:31:29;6.80;99.90
32095;DHT22;18608;53.688;10.748;2023-02-28T14:36:58;6.90;99.90
32095;DHT22;18608;53.688;10.748;2023-02-28T14:39:27;6.90;99.90
32095;DHT22;18608;53.688;10.748;2023-02-28T14:41:56;7.00;99.90
32095;DHT22;18608;53.688;10.748;2023-02-28T14:44:26;6.90;99.90
32095;DHT22;18608;53.688;10.748;2023-02-28T14:46:54;6.80;99.90
32095;DHT22;18608;53.688;10.748;2023-02-28T14:49:21;6.80;99.90
32095;DHT22;18608;53.688;10.748;2023-02-28T14:52:21;6.80;99.90
32095;DHT22;18608;53.688;10.748;2023-02-28T14:54:56;6.90;99.90
32095;DHT22;18608;53.688;10.748;2023-02-28T14:57:23;7.00;99.90
32095;DHT22;18608;53.688;10.748;2023-02-28T15:00:02;7.10;99.90
32095;DHT22;18608;53.688;10.748;2023-02-28T15:02:31;7.00;99.90
32095;DHT22;18608;53.688;10.748;2023-02-28T15:05:02;7.10;99.90
32095;DHT22;18608;53.688;10.748;2023-02-28T15:07:36;7.10;99.90
32095;DHT22;18608;53.688;10.748;2023-02-28T15:10:24;7.10;99.90
32095;DHT22;18608;53.688;10.748;2023-02-28T15:12:57;6.90;99.90
32095;DHT22;18608;53.688;10.748;2023-02-28T15:15:53;6.90;99.90
32095;DHT22;18608;53.688;10.748;2023-02-28T15:18:44;7.00;99.90
32095;DHT22;18608;53.688;10.748;2023-02-28T15:21:21;7.00;99.90
32095;DHT22;18608;53.688;10.748;2023-02-28T15:23:55;7.20;99.90
32095;DHT22;18608;53.688;10.748;2023-02-28T15:26:26;7.20;99.90
32095;DHT22;18608;53.688;10.748;2023-02-28T15:28:59;7.40;99.90
32095;DHT22;18608;53.688;10.748;2023-02-28T15:31:32;7.40;99.90
32095;DHT22;18608;53.688;10.748;2023-02-28T15:34:04;7.40;99.90
32095;DHT22;18608;53.688;10.748;2023-02-28T15:36:31;7.20;99.90
32095;DHT22;18608;53.688;10.748;2023-02-28T15:38:59;7.10;99.90
32095;DHT22;18608;53.688;10.748;2023-02-28T15:41:31;7.00;99.90
32095;DHT22;18608;53.688;10.748;2023-02-28T15:44:28;7.00;99.90
32095;DHT22;18608;53.688;10.748;2023-02-28T15:49:24;7.00;99.90
32095;DHT22;18608;53.688;10.748;2023-02-28T15:51:51;7.00;99.90
32095;DHT22;18608;53.688;10.748;2023-02-28T15:54:29;7.00;99.90
32095;DHT22;18608;53.688;10.748;2023-02-28T15:57:03;6.90;99.90
32095;DHT22;18608;53.688;10.748;2023-02-28T15:59:31;6.90;99.90
32095;DHT22;18608;53.688;10.748;2023-02-28T16:07:25;6.70;99.90
32095;DHT22;18608;53.688;10.748;2023-02-28T16:09:51;6.60;99.90
32095;DHT22;18608;53.688;10.748;2023-02-28T16:12:17;6.70;99.90
32095;DHT22;18608;53.688;10.748;2023-02-28T16:14:43;6.60;99.90
32095;DHT22;18608;53.688;10.748;2023-02-28T16:17:23;6.50;99.90
32095;DHT22;18608;53.688;10.748;2023-02-28T16:19:49;6.70;99.90
32095;DHT22;18608;53.688;10.748;2023-02-28T16:22:15;6.60;99.90
32095;DHT22;18608;53.688;10.748;2023-02-28T16:24:41;6.70;99.90
32095;DHT22;18608;53.688;10.748;2023-02-28T16:27:10;6.60;99.90
32095;DHT22;18608;53.688;10.748;2023-02-28T16:29:40;6.50;99.90
32095;DHT22;18608;53.688;10.748;2023-02-28T16:32:07;6.40;99.90
32095;DHT22;18608;53.688;10.748;2023-02-28T16:34:32;6.30;99.90
32095;DHT22;18608;53.688;10.748;2023-02-28T16:36:58;5.90;99.90
32095;DHT22;18608;53.688;10.748;2023-02-28T16:39:24;6.10;99.90
32095;DHT22;18608;53.688;10.748;2023-02-28T16:41:50;6.10;99.90
32095;DHT22;18608;53.688;10.748;2023-02-28T16:44:32;6.00;99.90
32095;DHT22;18608;53.688;10.748;2023-02-28T16:47:00;5.90;99.90
32095;DHT22;18608;53.688;10.748;2023-02-28T16:49:26;5.90;99.90
32095;DHT22;18608;53.688;10.748;2023-02-28T16:51:52;5.80;99.90
32095;DHT22;18608;53.688;10.748;2023-02-28T16:54:18;5.60;99.90
32095;DHT22;18608;53.688;10.748;2023-02-28T16:56:45;5.50;99.90
32095;DHT22;18608;53.688;10.748;2023-02-28T16:59:12;5.50;99.90
32095;DHT22;18608;53.688;10.748;2023-02-28T17:01:39;5.40;99.90
32095;DHT22;18608;53.688;10.748;2023-02-28T17:04:04;5.20;99.90
32095;DHT22;18608;53.688;10.748;2023-02-28T17:06:30;5.30;99.90
32095;DHT22;18608;53.688;10.748;2023-02-28T17:08:58;5.00;99.90
32095;DHT22;18608;53.688;10.748;2023-02-28T17:11:25;5.00;99.90
32095;DHT22;18608;53.688;10.748;2023-02-28T17:13:50;4.90;99.90
32095;DHT22;18608;53.688;10.748;2023-02-28T17:18:48;4.80;99.90
32095;DHT22;18608;53.688;10.748;2023-02-28T17:21:16;4.70;99.90
32095;DHT22;18608;53.688;10.748;2023-02-28T17:23:42;4.50;99.90
32095;DHT22;18608;53.688;10.748;2023-02-28T17:26:12;4.50;99.90
32095;DHT22;18608;53.688;10.748;2023-02-28T17:28:38;4.40;99.90
32095;DHT22;18608;53.688;10.748;2023-02-28T17:31:04;4.30;99.90
32095;DHT22;18608;53.688;10.748;2023-02-28T17:35:55;4.00;99.90
32095;DHT22;18608;53.688;10.748;2023-02-28T17:40:48;3.90;99.90
32095;DHT22;18608;53.688;10.748;2023-02-28T17:43:14;3.90;99.90
32095;DHT22;18608;53.688;10.748;2023-02-28T17:45:40;3.80;99.90
32095;DHT22;18608;53.688;10.748;2023-02-28T17:48:08;3.70;99.90
32095;DHT22;18608;53.688;10.748;2023-02-28T17:50:34;3.80;99.90
32095;DHT22;18608;53.688;10.748;2023-02-28T17:53:00;3.70;99.90
32095;DHT22;18608;53.688;10.748;2023-02-28T17:55:25;3.70;99.90
32095;DHT22;18608;53.688;10.748;2023-02-28T17:57:51;3.60;99.90
32095;DHT22;18608;53.688;10.748;2023-02-28T18:00:17;3.60;99.90
32095;DHT22;18608;53.688;10.748;2023-02-28T18:02:44;3.40;99.90
32095;DHT22;18608;53.688;10.748;2023-02-28T18:05:10;3.10;99.90
32095;DHT22;18608;53.688;10.748;2023-02-28T18:07:39;3.50;99.90
32095;DHT22;18608;53.688;10.748;2023-02-28T18:10:07;3.50;99.90
32095;DHT22;18608;53.688;10.748;2023-02-28T18:12:33;3.40;99.90
32095;DHT22;18608;53.688;10.748;2023-02-28T18:14:58;3.40;99.90
32095;DHT22;18608;53.688;10.748;2023-02-28T18:17:24;3.30;99.90
32095;DHT22;18608;53.688;10.748;2023-02-28T18:19:49;3.20;99.90
32095;DHT22;18608;53.688;10.748;2023-02-28T18:22:15;3.20;99.90
32095;DHT22;18608;53.688;10.748;2023-02-28T18:24:41;3.10;99.90
32095;DHT22;18608;53.688;10.748;2023-02-28T18:27:07;3.10;99.90
32095;DHT22;18608;53.688;10.748;2023-02-28T18:29:33;3.10;99.90
32095;DHT22;18608;53.688;10.748;2023-02-28T18:31:59;3.00;99.90
32095;DHT22;18608;53.688;10.748;2023-02-28T18:34:26;3.00;99.90
32095;DHT22;18608;53.688;10.748;2023-02-28T18:36:52;3.00;99.90
32095;DHT22;18608;53.688;10.748;2023-02-28T18:39:18;2.90;99.90
32095;DHT22;18608;53.688;10.748;2023-02-28T18:41:44;2.90;99.90
32095;DHT22;18608;53.688;10.748;2023-02-28T18:44:10;2.90;99.90
32095;DHT22;18608;53.688;10.748;2023-02-28T18:46:36;2.80;99.90